sensor_id;sensor_type;location;lat;lon;timestamp;P1;durP1;ratioP1;P2;durP2;ratioP2
55827;SDS011;41758;51.992;5.890;2024-01-25T00:01:16;23.48;;;5.55;;
55827;SDS011;41758;51.992;5.890;2024-01-25T00:03:42;19.35;;;5.18;;
55827;SDS011;41758;51.992;5.890;2024-01-25T00:06:08;26.33;;;6.28;;
55827;SDS011;41758;51.992;5.890;2024-01-25T00:08:34;23.73;;;6.55;;
55827;SDS011;41758;51.992;5.890;2024-01-25T00:11:01;23.05;;;5.78;;
55827;SDS011;41758;51.992;5.890;2024-01-25T00:13:27;26.70;;;6.05;;
55827;SDS011;41758;51.992;5.890;2024-01-25T00:15:53;25.73;;;6.10;;
55827;SDS011;41758;51.992;5.890;2024-01-25T00:18:18;19.33;;;4.93;;
55827;SDS011;41758;51.992;5.890;2024-01-25T00:20:44;19.17;;;5.20;;
55827;SDS011;41758;51.992;5.890;2024-01-25T00:23:10;26.15;;;5.97;;
55827;SDS011;41758;51.992;5.890;2024-01-25T00:25:36;22.33;;;5.80;;
55827;SDS011;41758;51.992;5.890;2024-01-25T00:28:01;17.23;;;5.25;;
55827;SDS011;41758;51.992;5.890;2024-01-25T00:30:27;19.27;;;5.80;;
55827;SDS011;41758;51.992;5.890;2024-01-25T00:32:53;21.13;;;5.72;;
55827;SDS011;41758;51.992;5.890;2024-01-25T00:35:18;20.67;;;5.53;;
55827;SDS011;41758;51.992;5.890;2024-01-25T00:37:45;25.58;;;6.57;;
55827;SDS011;41758;51.992;5.890;2024-01-25T00:40:11;17.75;;;5.85;;
55827;SDS011;41758;51.992;5.890;2024-01-25T00:42:45;18.73;;;5.00;;
55827;SDS011;41758;51.992;5.890;2024-01-25T00:45:18;24.30;;;6.53;;
55827;SDS011;41758;51.992;5.890;2024-01-25T00:47:45;17.95;;;4.97;;
55827;SDS011;41758;51.992;5.890;2024-01-25T00:50:11;16.38;;;4.10;;
55827;SDS011;41758;51.992;5.890;2024-01-25T00:52:38;20.25;;;5.47;;
55827;SDS011;41758;51.992;5.890;2024-01-25T00:55:04;19.58;;;4.90;;
55827;SDS011;41758;51.992;5.890;2024-01-25T00:57:31;25.65;;;6.32;;
55827;SDS011;41758;51.992;5.890;2024-01-25T00:59:58;23.20;;;6.38;;
55827;SDS011;41758;51.992;5.890;2024-01-25T01:02:24;21.38;;;5.22;;
55827;SDS011;41758;51.992;5.890;2024-01-25T01:04:56;22.40;;;5.47;;
55827;SDS011;41758;51.992;5.890;2024-01-25T01:07:24;17.52;;;4.82;;
55827;SDS011;41758;51.992;5.890;2024-01-25T01:09:50;14.77;;;4.20;;
55827;SDS011;41758;51.992;5.890;2024-01-25T01:12:16;24.88;;;5.47;;
55827;SDS011;41758;51.992;5.890;2024-01-25T01:14:42;15.90;;;4.72;;
55827;SDS011;41758;51.992;5.890;2024-01-25T01:17:08;19.83;;;5.00;;
55827;SDS011;41758;51.992;5.890;2024-01-25T01:19:34;17.80;;;4.38;;
55827;SDS011;41758;51.992;5.890;2024-01-25T01:21:59;20.88;;;5.32;;
55827;SDS011;41758;51.992;5.890;2024-01-25T01:24:25;16.70;;;4.88;;
55827;SDS011;41758;51.992;5.890;2024-01-25T01:26:51;12.50;;;4.13;;
55827;SDS011;41758;51.992;5.890;2024-01-25T01:29:16;16.00;;;4.07;;
55827;SDS011;41758;51.992;5.890;2024-01-25T01:31:43;10.77;;;3.88;;
55827;SDS011;41758;51.992;5.890;2024-01-25T01:34:09;13.02;;;3.45;;
55827;SDS011;41758;51.992;5.890;2024-01-25T01:36:37;12.40;;;3.80;;
55827;SDS011;41758;51.992;5.890;2024-01-25T01:39:03;12.55;;;3.85;;
55827;SDS011;41758;51.992;5.890;2024-01-25T01:41:29;12.30;;;3.88;;
55827;SDS011;41758;51.992;5.890;2024-01-25T01:43:54;15.45;;;4.35;;
55827;SDS011;41758;51.992;5.890;2024-01-25T01:46:22;12.60;;;4.35;;
55827;SDS011;41758;51.992;5.890;2024-01-25T01:48:51;11.40;;;3.55;;
55827;SDS011;41758;51.992;5.890;2024-01-25T01:51:17;10.77;;;3.67;;
55827;SDS011;41758;51.992;5.890;2024-01-25T01:53:42;11.88;;;3.63;;
55827;SDS011;41758;51.992;5.890;2024-01-25T01:56:09;11.10;;;3.20;;
55827;SDS011;41758;51.992;5.890;2024-01-25T01:58:35;14.18;;;3.70;;
55827;SDS011;41758;51.992;5.890;2024-01-25T02:01:01;11.70;;;3.65;;
55827;SDS011;41758;51.992;5.890;2024-01-25T02:03:27;11.05;;;3.47;;
55827;SDS011;41758;51.992;5.890;2024-01-25T02:05:53;11.70;;;3.72;;
55827;SDS011;41758;51.992;5.890;2024-01-25T02:08:19;14.20;;;4.20;;
55827;SDS011;41758;51.992;5.890;2024-01-25T02:10:45;13.40;;;4.35;;
55827;SDS011;41758;51.992;5.890;2024-01-25T02:13:11;16.58;;;4.22;;
55827;SDS011;41758;51.992;5.890;2024-01-25T02:15:37;22.20;;;5.25;;
55827;SDS011;41758;51.992;5.890;2024-01-25T02:18:02;18.08;;;4.40;;
55827;SDS011;41758;51.992;5.890;2024-01-25T02:20:28;14.27;;;4.32;;
55827;SDS011;41758;51.992;5.890;2024-01-25T02:22:54;20.45;;;5.15;;
55827;SDS011;41758;51.992;5.890;2024-01-25T02:25:19;15.18;;;4.05;;
55827;SDS011;41758;51.992;5.890;2024-01-25T02:27:45;13.07;;;4.15;;
55827;SDS011;41758;51.992;5.890;2024-01-25T02:30:11;15.10;;;4.25;;
55827;SDS011;41758;51.992;5.890;2024-01-25T02:32:36;16.45;;;4.72;;
55827;SDS011;41758;51.992;5.890;2024-01-25T02:35:02;15.35;;;4.30;;
55827;SDS011;41758;51.992;5.890;2024-01-25T02:37:28;16.38;;;4.70;;
55827;SDS011;41758;51.992;5.890;2024-01-25T02:39:53;12.95;;;3.90;;
55827;SDS011;41758;51.992;5.890;2024-01-25T02:42:19;13.52;;;3.95;;
55827;SDS011;41758;51.992;5.890;2024-01-25T02:44:45;11.68;;;3.70;;
55827;SDS011;41758;51.992;5.890;2024-01-25T02:47:10;11.63;;;4.03;;
55827;SDS011;41758;51.992;5.890;2024-01-25T02:49:36;18.60;;;4.63;;
55827;SDS011;41758;51.992;5.890;2024-01-25T02:52:02;13.60;;;4.13;;
55827;SDS011;41758;51.992;5.890;2024-01-25T02:54:28;13.65;;;4.40;;
55827;SDS011;41758;51.992;5.890;2024-01-25T02:56:53;15.88;;;4.28;;
55827;SDS011;41758;51.992;5.890;2024-01-25T02:59:19;13.38;;;4.05;;
55827;SDS011;41758;51.992;5.890;2024-01-25T03:01:45;13.60;;;3.90;;
55827;SDS011;41758;51.992;5.890;2024-01-25T03:04:11;12.20;;;3.50;;
55827;SDS011;41758;51.992;5.890;2024-01-25T03:06:37;12.45;;;4.53;;
55827;SDS011;41758;51.992;5.890;2024-01-25T03:09:03;14.43;;;4.72;;
55827;SDS011;41758;51.992;5.890;2024-01-25T03:11:31;16.55;;;4.55;;
55827;SDS011;41758;51.992;5.890;2024-01-25T03:13:57;16.13;;;4.40;;
55827;SDS011;41758;51.992;5.890;2024-01-25T03:16:23;18.10;;;4.95;;
55827;SDS011;41758;51.992;5.890;2024-01-25T03:18:48;22.13;;;5.25;;
55827;SDS011;41758;51.992;5.890;2024-01-25T03:21:14;27.60;;;6.28;;
55827;SDS011;41758;51.992;5.890;2024-01-25T03:23:40;26.38;;;6.55;;
55827;SDS011;41758;51.992;5.890;2024-01-25T03:26:05;19.23;;;6.00;;
55827;SDS011;41758;51.992;5.890;2024-01-25T03:28:32;17.45;;;4.93;;
55827;SDS011;41758;51.992;5.890;2024-01-25T03:30:59;21.00;;;4.88;;
55827;SDS011;41758;51.992;5.890;2024-01-25T03:33:25;14.27;;;4.90;;
55827;SDS011;41758;51.992;5.890;2024-01-25T03:35:53;15.00;;;4.32;;
55827;SDS011;41758;51.992;5.890;2024-01-25T03:38:19;16.75;;;4.40;;
55827;SDS011;41758;51.992;5.890;2024-01-25T03:40:45;16.98;;;4.68;;
55827;SDS011;41758;51.992;5.890;2024-01-25T03:43:11;24.10;;;5.45;;
55827;SDS011;41758;51.992;5.890;2024-01-25T03:45:37;25.23;;;6.05;;
55827;SDS011;41758;51.992;5.890;2024-01-25T03:48:03;25.75;;;6.38;;
55827;SDS011;41758;51.992;5.890;2024-01-25T03:50:29;23.58;;;5.63;;
55827;SDS011;41758;51.992;5.890;2024-01-25T03:52:54;24.13;;;5.90;;
55827;SDS011;41758;51.992;5.890;2024-01-25T03:55:20;19.73;;;5.10;;
55827;SDS011;41758;51.992;5.890;2024-01-25T03:57:45;19.95;;;5.25;;
55827;SDS011;41758;51.992;5.890;2024-01-25T04:00:11;17.17;;;4.72;;
55827;SDS011;41758;51.992;5.890;2024-01-25T04:02:37;17.35;;;5.15;;
55827;SDS011;41758;51.992;5.890;2024-01-25T04:05:03;16.58;;;5.18;;
55827;SDS011;41758;51.992;5.890;2024-01-25T04:07:29;26.63;;;6.05;;
55827;SDS011;41758;51.992;5.890;2024-01-25T04:09:55;26.52;;;6.03;;
55827;SDS011;41758;51.992;5.890;2024-01-25T04:12:21;26.00;;;5.85;;
55827;SDS011;41758;51.992;5.890;2024-01-25T04:14:47;25.27;;;5.70;;
55827;SDS011;41758;51.992;5.890;2024-01-25T04:17:12;23.33;;;5.88;;
55827;SDS011;41758;51.992;5.890;2024-01-25T04:19:38;28.83;;;6.43;;
55827;SDS011;41758;51.992;5.890;2024-01-25T04:22:03;20.85;;;5.38;;
55827;SDS011;41758;51.992;5.890;2024-01-25T04:24:29;26.05;;;6.35;;
55827;SDS011;41758;51.992;5.890;2024-01-25T04:26:55;20.83;;;5.55;;
55827;SDS011;41758;51.992;5.890;2024-01-25T04:29:20;25.25;;;5.93;;
55827;SDS011;41758;51.992;5.890;2024-01-25T04:31:46;22.17;;;5.35;;
55827;SDS011;41758;51.992;5.890;2024-01-25T04:34:13;19.08;;;5.22;;
55827;SDS011;41758;51.992;5.890;2024-01-25T04:36:40;12.05;;;4.10;;
55827;SDS011;41758;51.992;5.890;2024-01-25T04:39:05;14.52;;;4.15;;
55827;SDS011;41758;51.992;5.890;2024-01-25T04:41:31;13.02;;;4.18;;
55827;SDS011;41758;51.992;5.890;2024-01-25T04:43:57;15.35;;;3.95;;
55827;SDS011;41758;51.992;5.890;2024-01-25T04:46:22;14.82;;;4.20;;
55827;SDS011;41758;51.992;5.890;2024-01-25T04:48:48;13.30;;;3.92;;
55827;SDS011;41758;51.992;5.890;2024-01-25T04:51:18;13.05;;;4.25;;
55827;SDS011;41758;51.992;5.890;2024-01-25T04:53:45;11.60;;;4.03;;
55827;SDS011;41758;51.992;5.890;2024-01-25T04:56:11;10.82;;;4.10;;
55827;SDS011;41758;51.992;5.890;2024-01-25T04:58:37;11.05;;;3.45;;
55827;SDS011;41758;51.992;5.890;2024-01-25T05:01:03;10.40;;;3.83;;
55827;SDS011;41758;51.992;5.890;2024-01-25T05:03:29;9.98;;;3.63;;
55827;SDS011;41758;51.992;5.890;2024-01-25T05:05:55;16.85;;;4.78;;
55827;SDS011;41758;51.992;5.890;2024-01-25T05:08:21;18.17;;;5.28;;
55827;SDS011;41758;51.992;5.890;2024-01-25T05:10:47;15.27;;;4.57;;
55827;SDS011;41758;51.992;5.890;2024-01-25T05:13:12;19.52;;;5.18;;
55827;SDS011;41758;51.992;5.890;2024-01-25T05:15:38;13.90;;;4.68;;
55827;SDS011;41758;51.992;5.890;2024-01-25T05:18:04;17.77;;;4.93;;
55827;SDS011;41758;51.992;5.890;2024-01-25T05:20:31;15.30;;;4.70;;
55827;SDS011;41758;51.992;5.890;2024-01-25T05:22:58;13.52;;;4.78;;
55827;SDS011;41758;51.992;5.890;2024-01-25T05:25:24;13.85;;;4.00;;
55827;SDS011;41758;51.992;5.890;2024-01-25T05:27:51;12.93;;;3.90;;
55827;SDS011;41758;51.992;5.890;2024-01-25T05:30:17;10.07;;;3.65;;
55827;SDS011;41758;51.992;5.890;2024-01-25T05:32:43;11.40;;;3.80;;
55827;SDS011;41758;51.992;5.890;2024-01-25T05:35:09;8.35;;;3.38;;
55827;SDS011;41758;51.992;5.890;2024-01-25T05:37:35;9.43;;;3.60;;
55827;SDS011;41758;51.992;5.890;2024-01-25T05:40:00;10.00;;;3.53;;
55827;SDS011;41758;51.992;5.890;2024-01-25T05:42:26;11.93;;;3.60;;
55827;SDS011;41758;51.992;5.890;2024-01-25T05:44:52;13.00;;;4.07;;
55827;SDS011;41758;51.992;5.890;2024-01-25T05:47:18;12.82;;;4.10;;
55827;SDS011;41758;51.992;5.890;2024-01-25T05:49:43;10.50;;;3.72;;
55827;SDS011;41758;51.992;5.890;2024-01-25T05:52:09;9.48;;;3.47;;
55827;SDS011;41758;51.992;5.890;2024-01-25T05:54:35;15.90;;;4.15;;
55827;SDS011;41758;51.992;5.890;2024-01-25T05:57:01;13.82;;;4.35;;
55827;SDS011;41758;51.992;5.890;2024-01-25T05:59:27;11.57;;;3.95;;
55827;SDS011;41758;51.992;5.890;2024-01-25T06:01:53;11.43;;;4.43;;
55827;SDS011;41758;51.992;5.890;2024-01-25T06:04:18;12.68;;;4.68;;
55827;SDS011;41758;51.992;5.890;2024-01-25T06:06:44;10.48;;;4.22;;
55827;SDS011;41758;51.992;5.890;2024-01-25T06:09:10;11.25;;;4.20;;
55827;SDS011;41758;51.992;5.890;2024-01-25T06:11:35;10.65;;;3.95;;
55827;SDS011;41758;51.992;5.890;2024-01-25T06:14:03;12.88;;;4.20;;
55827;SDS011;41758;51.992;5.890;2024-01-25T06:16:33;13.45;;;3.90;;
55827;SDS011;41758;51.992;5.890;2024-01-25T06:18:58;17.65;;;4.75;;
55827;SDS011;41758;51.992;5.890;2024-01-25T06:21:25;16.63;;;4.78;;
55827;SDS011;41758;51.992;5.890;2024-01-25T06:23:51;11.27;;;3.65;;
55827;SDS011;41758;51.992;5.890;2024-01-25T06:26:16;15.50;;;4.22;;
55827;SDS011;41758;51.992;5.890;2024-01-25T06:28:42;11.65;;;4.07;;
55827;SDS011;41758;51.992;5.890;2024-01-25T06:31:08;13.73;;;4.43;;
55827;SDS011;41758;51.992;5.890;2024-01-25T06:33:33;9.27;;;3.60;;
55827;SDS011;41758;51.992;5.890;2024-01-25T06:35:59;17.60;;;5.10;;
55827;SDS011;41758;51.992;5.890;2024-01-25T06:38:25;15.43;;;4.95;;
55827;SDS011;41758;51.992;5.890;2024-01-25T06:40:50;11.95;;;4.43;;
55827;SDS011;41758;51.992;5.890;2024-01-25T06:43:16;13.43;;;4.00;;
55827;SDS011;41758;51.992;5.890;2024-01-25T06:45:42;12.80;;;4.15;;
55827;SDS011;41758;51.992;5.890;2024-01-25T06:48:07;11.30;;;4.00;;
55827;SDS011;41758;51.992;5.890;2024-01-25T06:50:36;15.80;;;4.75;;
55827;SDS011;41758;51.992;5.890;2024-01-25T06:53:02;13.63;;;4.80;;
55827;SDS011;41758;51.992;5.890;2024-01-25T06:55:28;15.50;;;4.65;;
55827;SDS011;41758;51.992;5.890;2024-01-25T06:57:54;11.43;;;4.10;;
55827;SDS011;41758;51.992;5.890;2024-01-25T07:00:20;9.63;;;3.58;;
55827;SDS011;41758;51.992;5.890;2024-01-25T07:02:46;11.10;;;3.95;;
55827;SDS011;41758;51.992;5.890;2024-01-25T07:05:12;10.63;;;3.85;;
55827;SDS011;41758;51.992;5.890;2024-01-25T07:07:38;12.27;;;4.32;;
55827;SDS011;41758;51.992;5.890;2024-01-25T07:10:05;12.30;;;4.28;;
55827;SDS011;41758;51.992;5.890;2024-01-25T07:12:31;10.55;;;4.15;;
55827;SDS011;41758;51.992;5.890;2024-01-25T07:14:57;14.90;;;4.55;;
55827;SDS011;41758;51.992;5.890;2024-01-25T07:17:23;12.13;;;4.28;;
55827;SDS011;41758;51.992;5.890;2024-01-25T07:19:49;14.57;;;4.85;;
55827;SDS011;41758;51.992;5.890;2024-01-25T07:22:15;16.83;;;5.32;;
55827;SDS011;41758;51.992;5.890;2024-01-25T07:24:42;13.68;;;5.13;;
55827;SDS011;41758;51.992;5.890;2024-01-25T07:27:08;13.88;;;5.53;;
55827;SDS011;41758;51.992;5.890;2024-01-25T07:29:35;13.20;;;5.38;;
55827;SDS011;41758;51.992;5.890;2024-01-25T07:32:02;16.40;;;5.30;;
55827;SDS011;41758;51.992;5.890;2024-01-25T07:34:28;15.93;;;5.30;;
55827;SDS011;41758;51.992;5.890;2024-01-25T07:36:54;23.52;;;6.35;;
55827;SDS011;41758;51.992;5.890;2024-01-25T07:39:19;16.75;;;5.82;;
55827;SDS011;41758;51.992;5.890;2024-01-25T07:41:45;18.38;;;6.03;;
55827;SDS011;41758;51.992;5.890;2024-01-25T07:44:12;21.13;;;5.90;;
55827;SDS011;41758;51.992;5.890;2024-01-25T07:46:38;18.85;;;6.00;;
55827;SDS011;41758;51.992;5.890;2024-01-25T07:49:03;15.95;;;6.13;;
55827;SDS011;41758;51.992;5.890;2024-01-25T07:51:30;19.10;;;6.07;;
55827;SDS011;41758;51.992;5.890;2024-01-25T07:53:55;17.17;;;6.43;;
55827;SDS011;41758;51.992;5.890;2024-01-25T07:56:21;16.90;;;5.65;;
55827;SDS011;41758;51.992;5.890;2024-01-25T07:58:47;13.30;;;5.43;;
55827;SDS011;41758;51.992;5.890;2024-01-25T08:01:16;13.25;;;5.07;;
55827;SDS011;41758;51.992;5.890;2024-01-25T08:03:43;12.77;;;4.75;;
55827;SDS011;41758;51.992;5.890;2024-01-25T08:06:09;15.63;;;5.38;;
55827;SDS011;41758;51.992;5.890;2024-01-25T08:08:34;15.38;;;5.30;;
55827;SDS011;41758;51.992;5.890;2024-01-25T08:11:00;12.07;;;4.88;;
55827;SDS011;41758;51.992;5.890;2024-01-25T08:13:26;16.27;;;5.43;;
55827;SDS011;41758;51.992;5.890;2024-01-25T08:15:55;15.27;;;5.32;;
55827;SDS011;41758;51.992;5.890;2024-01-25T08:18:21;13.90;;;5.70;;
55827;SDS011;41758;51.992;5.890;2024-01-25T08:20:48;15.05;;;5.20;;
55827;SDS011;41758;51.992;5.890;2024-01-25T08:23:14;13.65;;;5.15;;
55827;SDS011;41758;51.992;5.890;2024-01-25T08:25:40;19.88;;;6.03;;
55827;SDS011;41758;51.992;5.890;2024-01-25T08:28:06;18.38;;;6.47;;
55827;SDS011;41758;51.992;5.890;2024-01-25T08:30:31;20.20;;;7.05;;
55827;SDS011;41758;51.992;5.890;2024-01-25T08:32:57;21.88;;;7.45;;
55827;SDS011;41758;51.992;5.890;2024-01-25T08:35:23;18.67;;;6.68;;
55827;SDS011;41758;51.992;5.890;2024-01-25T08:37:49;16.33;;;5.72;;
55827;SDS011;41758;51.992;5.890;2024-01-25T08:40:15;13.60;;;5.60;;
55827;SDS011;41758;51.992;5.890;2024-01-25T08:42:41;10.68;;;5.35;;
55827;SDS011;41758;51.992;5.890;2024-01-25T08:45:07;13.30;;;5.13;;
55827;SDS011;41758;51.992;5.890;2024-01-25T08:47:37;12.60;;;5.63;;
55827;SDS011;41758;51.992;5.890;2024-01-25T08:50:03;13.00;;;5.28;;
55827;SDS011;41758;51.992;5.890;2024-01-25T08:52:30;13.18;;;5.35;;
55827;SDS011;41758;51.992;5.890;2024-01-25T08:54:56;24.00;;;7.50;;
55827;SDS011;41758;51.992;5.890;2024-01-25T08:57:22;29.23;;;8.77;;
55827;SDS011;41758;51.992;5.890;2024-01-25T08:59:47;26.23;;;8.02;;
55827;SDS011;41758;51.992;5.890;2024-01-25T09:02:13;19.35;;;7.68;;
55827;SDS011;41758;51.992;5.890;2024-01-25T09:04:39;19.23;;;6.78;;
55827;SDS011;41758;51.992;5.890;2024-01-25T09:07:08;16.73;;;6.18;;
55827;SDS011;41758;51.992;5.890;2024-01-25T09:09:33;16.83;;;6.20;;
55827;SDS011;41758;51.992;5.890;2024-01-25T09:11:59;19.67;;;6.22;;
55827;SDS011;41758;51.992;5.890;2024-01-25T09:14:25;14.88;;;5.60;;
55827;SDS011;41758;51.992;5.890;2024-01-25T09:16:51;26.25;;;7.28;;
55827;SDS011;41758;51.992;5.890;2024-01-25T09:19:17;28.85;;;8.27;;
55827;SDS011;41758;51.992;5.890;2024-01-25T09:21:43;29.83;;;8.35;;
55827;SDS011;41758;51.992;5.890;2024-01-25T09:24:08;20.05;;;7.28;;
55827;SDS011;41758;51.992;5.890;2024-01-25T09:26:34;17.98;;;6.63;;
55827;SDS011;41758;51.992;5.890;2024-01-25T09:28:59;19.40;;;6.47;;
55827;SDS011;41758;51.992;5.890;2024-01-25T09:31:25;18.25;;;6.47;;
55827;SDS011;41758;51.992;5.890;2024-01-25T09:33:51;25.73;;;7.88;;
55827;SDS011;41758;51.992;5.890;2024-01-25T09:36:16;27.38;;;8.60;;
55827;SDS011;41758;51.992;5.890;2024-01-25T09:38:42;19.05;;;7.20;;
55827;SDS011;41758;51.992;5.890;2024-01-25T09:41:08;24.58;;;8.10;;
55827;SDS011;41758;51.992;5.890;2024-01-25T09:43:34;31.70;;;10.18;;
55827;SDS011;41758;51.992;5.890;2024-01-25T09:46:01;26.35;;;9.25;;
55827;SDS011;41758;51.992;5.890;2024-01-25T09:48:27;27.05;;;9.35;;
55827;SDS011;41758;51.992;5.890;2024-01-25T09:50:54;28.30;;;8.13;;
55827;SDS011;41758;51.992;5.890;2024-01-25T09:53:21;24.23;;;7.68;;
55827;SDS011;41758;51.992;5.890;2024-01-25T09:56:09;21.38;;;7.20;;
55827;SDS011;41758;51.992;5.890;2024-01-25T09:58:41;21.58;;;7.10;;
55827;SDS011;41758;51.992;5.890;2024-01-25T10:01:08;14.20;;;5.65;;
55827;SDS011;41758;51.992;5.890;2024-01-25T10:03:36;13.90;;;6.15;;
55827;SDS011;41758;51.992;5.890;2024-01-25T10:06:02;15.02;;;5.95;;
55827;SDS011;41758;51.992;5.890;2024-01-25T10:08:29;24.05;;;7.60;;
55827;SDS011;41758;51.992;5.890;2024-01-25T10:10:54;28.85;;;8.38;;
55827;SDS011;41758;51.992;5.890;2024-01-25T10:13:20;26.58;;;8.00;;
55827;SDS011;41758;51.992;5.890;2024-01-25T10:15:46;30.50;;;8.15;;
55827;SDS011;41758;51.992;5.890;2024-01-25T10:18:16;21.15;;;7.47;;
55827;SDS011;41758;51.992;5.890;2024-01-25T10:20:42;34.72;;;8.73;;
55827;SDS011;41758;51.992;5.890;2024-01-25T10:23:08;26.20;;;8.30;;
55827;SDS011;41758;51.992;5.890;2024-01-25T10:25:37;29.10;;;8.55;;
55827;SDS011;41758;51.992;5.890;2024-01-25T10:28:06;25.85;;;7.97;;
55827;SDS011;41758;51.992;5.890;2024-01-25T10:30:33;31.30;;;8.32;;
55827;SDS011;41758;51.992;5.890;2024-01-25T10:33:00;27.70;;;8.32;;
55827;SDS011;41758;51.992;5.890;2024-01-25T10:35:26;30.33;;;8.40;;
55827;SDS011;41758;51.992;5.890;2024-01-25T10:37:53;19.95;;;6.63;;
55827;SDS011;41758;51.992;5.890;2024-01-25T10:40:19;26.70;;;8.60;;
55827;SDS011;41758;51.992;5.890;2024-01-25T10:42:46;26.25;;;7.65;;
55827;SDS011;41758;51.992;5.890;2024-01-25T10:45:12;28.10;;;8.02;;
55827;SDS011;41758;51.992;5.890;2024-01-25T10:47:38;17.55;;;6.40;;
55827;SDS011;41758;51.992;5.890;2024-01-25T10:50:09;22.55;;;7.22;;
55827;SDS011;41758;51.992;5.890;2024-01-25T10:52:38;29.63;;;8.45;;
55827;SDS011;41758;51.992;5.890;2024-01-25T10:55:06;28.50;;;8.48;;
55827;SDS011;41758;51.992;5.890;2024-01-25T10:57:37;27.80;;;7.75;;
55827;SDS011;41758;51.992;5.890;2024-01-25T11:00:09;26.42;;;7.70;;
55827;SDS011;41758;51.992;5.890;2024-01-25T11:02:36;29.83;;;8.52;;
55827;SDS011;41758;51.992;5.890;2024-01-25T11:05:14;30.38;;;8.65;;
55827;SDS011;41758;51.992;5.890;2024-01-25T11:07:47;30.38;;;9.55;;
55827;SDS011;41758;51.992;5.890;2024-01-25T11:10:15;27.00;;;8.68;;
55827;SDS011;41758;51.992;5.890;2024-01-25T11:12:48;28.95;;;8.82;;
55827;SDS011;41758;51.992;5.890;2024-01-25T11:15:21;24.58;;;8.00;;
55827;SDS011;41758;51.992;5.890;2024-01-25T11:17:55;28.13;;;8.43;;
55827;SDS011;41758;51.992;5.890;2024-01-25T11:20:22;27.95;;;8.40;;
55827;SDS011;41758;51.992;5.890;2024-01-25T11:22:58;27.48;;;8.85;;
55827;SDS011;41758;51.992;5.890;2024-01-25T11:25:31;26.17;;;8.52;;
55827;SDS011;41758;51.992;5.890;2024-01-25T11:27:59;27.92;;;8.70;;
55827;SDS011;41758;51.992;5.890;2024-01-25T11:30:28;28.15;;;9.02;;
55827;SDS011;41758;51.992;5.890;2024-01-25T11:32:55;22.33;;;7.43;;
55827;SDS011;41758;51.992;5.890;2024-01-25T11:35:21;16.88;;;7.15;;
55827;SDS011;41758;51.992;5.890;2024-01-25T11:37:47;19.08;;;7.30;;
55827;SDS011;41758;51.992;5.890;2024-01-25T11:40:14;19.58;;;8.57;;
55827;SDS011;41758;51.992;5.890;2024-01-25T11:42:41;19.75;;;7.38;;
55827;SDS011;41758;51.992;5.890;2024-01-25T11:45:12;19.67;;;7.65;;
55827;SDS011;41758;51.992;5.890;2024-01-25T11:47:39;24.13;;;7.40;;
55827;SDS011;41758;51.992;5.890;2024-01-25T11:50:09;24.75;;;8.60;;
55827;SDS011;41758;51.992;5.890;2024-01-25T11:52:36;24.02;;;8.75;;
55827;SDS011;41758;51.992;5.890;2024-01-25T11:55:03;24.50;;;8.05;;
55827;SDS011;41758;51.992;5.890;2024-01-25T11:57:30;32.60;;;10.32;;
55827;SDS011;41758;51.992;5.890;2024-01-25T11:59:59;21.10;;;9.32;;
55827;SDS011;41758;51.992;5.890;2024-01-25T12:02:25;32.90;;;10.95;;
55827;SDS011;41758;51.992;5.890;2024-01-25T12:04:52;24.52;;;9.02;;
55827;SDS011;41758;51.992;5.890;2024-01-25T12:07:20;28.20;;;10.07;;
55827;SDS011;41758;51.992;5.890;2024-01-25T12:09:56;26.65;;;9.48;;
55827;SDS011;41758;51.992;5.890;2024-01-25T12:12:23;24.35;;;9.77;;
55827;SDS011;41758;51.992;5.890;2024-01-25T12:14:49;28.38;;;9.65;;
55827;SDS011;41758;51.992;5.890;2024-01-25T12:17:14;26.05;;;9.57;;
55827;SDS011;41758;51.992;5.890;2024-01-25T12:19:40;26.25;;;9.55;;
55827;SDS011;41758;51.992;5.890;2024-01-25T12:22:06;35.78;;;11.18;;
55827;SDS011;41758;51.992;5.890;2024-01-25T12:24:31;27.08;;;9.82;;
55827;SDS011;41758;51.992;5.890;2024-01-25T12:26:57;27.55;;;9.23;;
55827;SDS011;41758;51.992;5.890;2024-01-25T12:29:23;33.95;;;10.57;;
55827;SDS011;41758;51.992;5.890;2024-01-25T12:31:49;31.95;;;10.57;;
55827;SDS011;41758;51.992;5.890;2024-01-25T12:34:15;26.88;;;10.32;;
55827;SDS011;41758;51.992;5.890;2024-01-25T12:36:41;20.27;;;8.35;;
55827;SDS011;41758;51.992;5.890;2024-01-25T12:39:07;30.60;;;9.93;;
55827;SDS011;41758;51.992;5.890;2024-01-25T12:41:33;22.20;;;8.88;;
55827;SDS011;41758;51.992;5.890;2024-01-25T12:44:00;28.50;;;9.25;;
55827;SDS011;41758;51.992;5.890;2024-01-25T12:46:26;28.80;;;9.52;;
55827;SDS011;41758;51.992;5.890;2024-01-25T12:48:52;22.58;;;8.80;;
55827;SDS011;41758;51.992;5.890;2024-01-25T12:51:20;22.52;;;8.15;;
55827;SDS011;41758;51.992;5.890;2024-01-25T12:53:47;21.45;;;9.15;;
55827;SDS011;41758;51.992;5.890;2024-01-25T12:56:14;24.00;;;8.98;;
55827;SDS011;41758;51.992;5.890;2024-01-25T12:58:39;27.65;;;9.75;;
55827;SDS011;41758;51.992;5.890;2024-01-25T13:01:05;22.73;;;8.55;;
55827;SDS011;41758;51.992;5.890;2024-01-25T13:03:31;26.70;;;9.23;;
55827;SDS011;41758;51.992;5.890;2024-01-25T13:05:57;27.85;;;9.88;;
55827;SDS011;41758;51.992;5.890;2024-01-25T13:08:22;26.58;;;9.70;;
55827;SDS011;41758;51.992;5.890;2024-01-25T13:10:48;28.08;;;9.43;;
55827;SDS011;41758;51.992;5.890;2024-01-25T13:13:14;27.30;;;8.70;;
55827;SDS011;41758;51.992;5.890;2024-01-25T13:15:40;25.73;;;9.60;;
55827;SDS011;41758;51.992;5.890;2024-01-25T13:18:05;25.58;;;8.65;;
55827;SDS011;41758;51.992;5.890;2024-01-25T13:20:31;25.80;;;9.07;;
55827;SDS011;41758;51.992;5.890;2024-01-25T13:22:57;24.35;;;8.88;;
55827;SDS011;41758;51.992;5.890;2024-01-25T13:25:23;26.27;;;9.70;;
55827;SDS011;41758;51.992;5.890;2024-01-25T13:27:48;21.83;;;8.38;;
55827;SDS011;41758;51.992;5.890;2024-01-25T13:30:14;27.40;;;8.93;;
55827;SDS011;41758;51.992;5.890;2024-01-25T13:32:40;28.75;;;9.32;;
55827;SDS011;41758;51.992;5.890;2024-01-25T13:35:06;31.05;;;9.98;;
55827;SDS011;41758;51.992;5.890;2024-01-25T13:37:32;26.98;;;9.10;;
55827;SDS011;41758;51.992;5.890;2024-01-25T13:39:57;32.67;;;9.98;;
55827;SDS011;41758;51.992;5.890;2024-01-25T13:42:23;28.48;;;9.40;;
55827;SDS011;41758;51.992;5.890;2024-01-25T13:44:49;27.50;;;9.98;;
55827;SDS011;41758;51.992;5.890;2024-01-25T13:47:15;27.30;;;10.82;;
55827;SDS011;41758;51.992;5.890;2024-01-25T13:49:40;32.65;;;11.10;;
55827;SDS011;41758;51.992;5.890;2024-01-25T13:52:06;29.33;;;11.63;;
55827;SDS011;41758;51.992;5.890;2024-01-25T13:54:32;24.70;;;10.52;;
55827;SDS011;41758;51.992;5.890;2024-01-25T13:56:57;29.38;;;11.18;;
55827;SDS011;41758;51.992;5.890;2024-01-25T13:59:23;27.20;;;11.02;;
55827;SDS011;41758;51.992;5.890;2024-01-25T14:01:50;28.55;;;12.20;;
55827;SDS011;41758;51.992;5.890;2024-01-25T14:04:16;28.13;;;13.20;;
55827;SDS011;41758;51.992;5.890;2024-01-25T14:06:42;29.60;;;13.63;;
55827;SDS011;41758;51.992;5.890;2024-01-25T14:09:08;33.10;;;13.77;;
55827;SDS011;41758;51.992;5.890;2024-01-25T14:11:34;28.38;;;12.85;;
55827;SDS011;41758;51.992;5.890;2024-01-25T14:14:00;31.05;;;13.82;;
55827;SDS011;41758;51.992;5.890;2024-01-25T14:16:26;26.30;;;13.13;;
55827;SDS011;41758;51.992;5.890;2024-01-25T14:18:51;25.08;;;12.95;;
55827;SDS011;41758;51.992;5.890;2024-01-25T14:21:17;24.52;;;12.32;;
55827;SDS011;41758;51.992;5.890;2024-01-25T14:23:46;23.73;;;12.50;;
55827;SDS011;41758;51.992;5.890;2024-01-25T14:26:12;27.40;;;13.52;;
55827;SDS011;41758;51.992;5.890;2024-01-25T14:28:37;36.08;;;16.98;;